createdAt,value
2019-05-03T00:01:52.796Z,63.61
2019-05-03T00:05:22.110Z,63.86
2019-05-03T00:08:44.737Z,63.51
2019-05-03T00:11:53.331Z,64.11
2019-05-03T00:15:12.006Z,63.61
2019-05-03T00:18:22.135Z,63.94
2019-05-03T00:21:32.582Z,63.07
2019-05-03T00:24:42.647Z,63.95
2019-05-03T00:27:52.752Z,64.58
2019-05-03T00:31:02.026Z,64.52
2019-05-03T00:34:14.109Z,64.54
2019-05-03T00:37:24.398Z,64.38
2019-05-03T00:40:33.062Z,64.84
2019-05-03T00:43:42.388Z,64.77
2019-05-03T00:46:51.769Z,64.47
2019-05-03T00:50:02.619Z,64.66
2019-05-03T00:53:12.474Z,64.79
2019-05-03T00:56:32.128Z,65.16
2019-05-03T00:59:42.014Z,64.44
2019-05-03T01:03:02.207Z,65.22
2019-05-03T01:06:11.594Z,64.91
2019-05-03T01:09:23.717Z,63.89
2019-05-03T01:12:32.572Z,64.77
2019-05-03T01:16:06.130Z,65.21
2019-05-03T01:19:14.802Z,65.17
2019-05-03T01:22:23.510Z,65.95
2019-05-03T01:25:35.326Z,66.30
2019-05-03T01:28:42.644Z,65.77
2019-05-03T01:31:52.815Z,66.34
2019-05-03T01:35:03.150Z,66.11
2019-05-03T01:38:11.901Z,66.49
2019-05-03T01:41:21.677Z,66.79
2019-05-03T01:44:42.624Z,66.59
2019-05-03T01:47:57.539Z,67.15
2019-05-03T01:51:22.816Z,67.18
2019-05-03T01:54:52.338Z,67.27
2019-05-03T01:58:01.924Z,67.72
2019-05-03T02:01:22.117Z,67.74
2019-05-03T02:04:39.156Z,67.95
2019-05-03T02:07:48.657Z,67.90
2019-05-03T02:11:07.890Z,67.31
2019-05-03T02:14:16.492Z,67.59
2019-05-03T02:17:26.684Z,67.26
2019-05-03T02:20:35.197Z,67.62
2019-05-03T02:23:43.857Z,67.18
2019-05-03T02:26:52.934Z,66.87
2019-05-03T02:30:03.088Z,67.53
2019-05-03T02:33:13.429Z,67.45
2019-05-03T02:36:23.183Z,67.88
2019-05-03T02:39:33.495Z,68.18
2019-05-03T02:42:46.426Z,68.28
2019-05-03T02:46:16.802Z,68.00
2019-05-03T02:49:56.217Z,68.25
2019-05-03T02:53:05.791Z,68.06
2019-05-03T02:56:25.977Z,68.06
2019-05-03T02:59:35.076Z,68.26
2019-05-03T03:02:45.619Z,68.48
2019-05-03T03:05:56.858Z,68.05
2019-05-03T03:09:07.026Z,67.77
2019-05-03T03:12:25.958Z,67.75
2019-05-03T03:15:36.310Z,67.65
2019-05-03T03:18:45.754Z,66.47
2019-05-03T03:21:58.347Z,66.98
2019-05-03T03:25:11.789Z,66.92
2019-05-03T03:28:25.134Z,67.08
2019-05-03T03:31:58.891Z,67.62
2019-05-03T03:36:29.141Z,68.76
2019-05-03T03:39:26.005Z,68.81
2019-05-03T03:42:36.055Z,68.76
2019-05-03T03:45:57.585Z,68.86
2019-05-03T03:49:07.180Z,68.34
2019-05-03T03:52:16.519Z,68.32
2019-05-03T03:55:37.650Z,68.13
2019-05-03T03:58:56.361Z,68.72
2019-05-03T04:02:06.032Z,69.16
2019-05-03T04:05:15.938Z,69.49
2019-05-03T04:08:35.999Z,69.40
2019-05-03T04:11:46.337Z,69.21
2019-05-03T04:15:08.445Z,69.62
2019-05-03T04:18:26.709Z,69.56
2019-05-03T04:21:35.994Z,69.51
2019-05-03T04:24:55.355Z,68.99
2019-05-03T04:28:16.180Z,69.10
2019-05-03T04:31:41.464Z,68.52
2019-05-03T04:34:50.141Z,68.70
2019-05-03T04:37:58.658Z,68.55
2019-05-03T04:41:07.285Z,68.13
2019-05-03T04:44:16.035Z,67.75
2019-05-03T04:47:26.273Z,67.61
2019-05-03T04:50:36.658Z,67.92
2019-05-03T04:53:50.047Z,67.22
2019-05-03T04:57:34.351Z,66.47
2019-05-03T05:00:27.297Z,66.70
2019-05-03T05:03:46.501Z,66.24
2019-05-03T05:06:55.552Z,66.02
2019-05-03T05:10:15.286Z,65.92
2019-05-03T05:13:24.999Z,65.17
2019-05-03T05:16:35.640Z,64.72
2019-05-03T05:19:49.727Z,65.06
2019-05-03T05:22:58.263Z,64.93
2019-05-03T05:26:19.872Z,64.30
2019-05-03T05:29:30.574Z,63.70
2019-05-03T05:32:39.164Z,63.32
2019-05-03T05:35:47.644Z,61.66
2019-05-03T05:38:56.292Z,60.41
2019-05-03T05:42:15.063Z,58.85
2019-05-03T05:45:24.587Z,57.07
2019-05-03T05:48:45.130Z,56.74
2019-05-03T05:51:54.990Z,56.08
2019-05-03T05:55:34.588Z,55.18
2019-05-03T05:58:51.459Z,54.08
2019-05-03T06:02:04.858Z,52.07
2019-05-03T06:05:14.818Z,51.71
2019-05-03T06:08:45.370Z,52.23
2019-05-03T06:11:58.073Z,50.93
2019-05-03T06:15:15.033Z,50.00
2019-05-03T06:18:29.435Z,50.14
2019-05-03T06:22:06.312Z,48.52
2019-05-03T06:25:27.829Z,49.36
2019-05-03T06:28:36.475Z,49.41
2019-05-03T06:32:02.733Z,50.23
2019-05-03T06:35:29.976Z,50.72
2019-05-03T06:38:48.862Z,50.49
2019-05-03T06:41:57.468Z,49.04
2019-05-03T06:45:11.552Z,48.93
2019-05-03T06:48:22.301Z,49.25
2019-05-03T06:51:28.308Z,49.69
2019-05-03T06:54:37.852Z,48.16
2019-05-03T06:57:56.978Z,48.16
2019-05-03T07:01:37.789Z,48.28
2019-05-03T07:04:48.814Z,47.83
2019-05-03T07:09:14.477Z,48.70
2019-05-03T07:12:24.896Z,47.76
2019-05-03T07:15:35.165Z,46.95
2019-05-03T07:18:45.476Z,45.85
2019-05-03T07:21:54.613Z,45.74
2019-05-03T07:25:04.683Z,46.87
2019-05-03T07:28:14.988Z,48.67
2019-05-03T07:31:25.523Z,48.51
2019-05-03T07:34:35.123Z,49.80
2019-05-03T07:37:45.106Z,49.82
2019-05-03T07:40:54.969Z,50.38
2019-05-03T07:44:05.331Z,52.10
2019-05-03T07:47:14.875Z,53.24
2019-05-03T07:50:25.593Z,56.59
2019-05-03T07:53:34.901Z,60.07
2019-05-03T07:56:48.837Z,59.57
2019-05-03T07:59:57.390Z,59.81
2019-05-03T08:03:17.926Z,53.82
2019-05-03T08:06:26.582Z,56.03
2019-05-03T08:09:35.246Z,54.34
2019-05-03T08:12:45.201Z,54.51
2019-05-03T08:15:55.793Z,53.22
2019-05-03T08:19:05.021Z,52.42
2019-05-03T08:22:14.966Z,52.52
2019-05-03T08:25:24.958Z,51.68
2019-05-03T08:28:34.673Z,49.85
2019-05-03T08:32:05.043Z,48.15
2019-05-03T08:35:38.905Z,46.64
2019-05-03T08:38:58.748Z,46.17
2019-05-03T08:42:11.338Z,46.92
2019-05-03T08:45:20.068Z,47.16
2019-05-03T08:48:38.872Z,46.57
2019-05-03T08:51:47.435Z,46.30
2019-05-03T08:54:56.038Z,46.33
2019-05-03T08:58:05.182Z,45.62
2019-05-03T09:01:14.871Z,45.58
2019-05-03T09:04:35.998Z,44.53
2019-05-03T09:07:35.537Z,44.79
2019-05-03T09:10:56.034Z,44.24
2019-05-03T09:14:07.179Z,44.81
2019-05-03T09:17:15.706Z,50.08
2019-05-03T09:20:25.095Z,53.90
2019-05-03T09:23:35.703Z,56.04
2019-05-03T09:26:55.553Z,54.68
2019-05-03T09:30:05.088Z,52.72
2019-05-03T09:33:24.860Z,51.83
2019-05-03T09:36:34.499Z,51.54
2019-05-03T09:39:44.554Z,51.86
2019-05-03T09:42:55.083Z,52.50
2019-05-03T09:46:05.140Z,51.61
2019-05-03T09:49:16.514Z,51.23
2019-05-03T09:52:24.971Z,51.29
2019-05-03T09:55:44.859Z,51.20
2019-05-03T09:58:55.692Z,50.59
2019-05-03T10:02:15.161Z,49.21
2019-05-03T10:05:25.475Z,48.88
2019-05-03T10:08:35.834Z,46.85
2019-05-03T10:11:45.921Z,45.16
2019-05-03T10:14:55.095Z,45.81
2019-05-03T10:18:10.576Z,45.18
2019-05-03T10:21:14.847Z,45.43
2019-05-03T10:24:23.565Z,46.20
2019-05-03T10:27:45.707Z,45.79
2019-05-03T10:30:54.824Z,44.78
2019-05-03T10:34:05.802Z,44.41
2019-05-03T10:37:30.683Z,45.25
2019-05-03T10:40:39.201Z,46.70
2019-05-03T10:43:47.928Z,42.63
2019-05-03T10:46:56.576Z,43.76
2019-05-03T10:50:05.547Z,40.76
2019-05-03T10:53:20.628Z,40.15
2019-05-03T10:56:58.359Z,41.99
2019-05-03T11:00:08.517Z,38.79
2019-05-03T11:03:17.344Z,39.72
2019-05-03T11:06:25.866Z,40.72
2019-05-03T11:09:49.497Z,40.77
2019-05-03T11:12:55.469Z,40.67
2019-05-03T11:16:14.852Z,40.70
2019-05-03T11:19:25.380Z,39.93
2019-05-03T11:22:34.968Z,40.68
2019-05-03T11:25:46.440Z,38.69
2019-05-03T11:29:00.557Z,38.41
2019-05-03T11:32:25.491Z,39.22
2019-05-03T11:35:58.718Z,39.90
2019-05-03T11:39:25.748Z,41.49
2019-05-03T11:42:35.343Z,41.00
2019-05-03T11:45:44.836Z,40.53
2019-05-03T11:48:54.930Z,42.46
2019-05-03T11:52:06.527Z,44.13
2019-05-03T11:55:16.210Z,46.11
2019-05-03T11:58:35.459Z,48.42
2019-05-03T12:02:09.260Z,47.26
2019-05-03T12:05:24.477Z,47.37
2019-05-03T12:08:34.630Z,46.66
2019-05-03T12:11:43.419Z,43.94
2019-05-03T12:14:52.031Z,43.34
2019-05-03T12:18:11.679Z,42.79
2019-05-03T12:21:31.890Z,42.14
2019-05-03T12:24:41.571Z,42.13
2019-05-03T12:27:50.650Z,41.57
2019-05-03T12:31:00.329Z,42.01
2019-05-03T12:34:08.945Z,41.61
2019-05-03T12:37:17.595Z,41.17
2019-05-03T12:40:26.242Z,40.82
2019-05-03T12:43:34.896Z,41.00
2019-05-03T12:46:44.987Z,42.07
2019-05-03T12:49:55.806Z,39.94
2019-05-03T12:53:04.965Z,38.62
2019-05-03T12:56:22.016Z,36.56
2019-05-03T12:59:42.123Z,35.31
2019-05-03T13:02:55.170Z,34.64
2019-05-03T13:06:07.158Z,34.88
2019-05-03T13:09:16.005Z,34.20
2019-05-03T13:12:26.367Z,34.07
2019-05-03T13:15:35.187Z,36.05
2019-05-03T13:18:45.805Z,37.60
2019-05-03T13:21:55.549Z,37.53
2019-05-03T13:25:05.254Z,38.87
2019-05-03T13:28:15.333Z,39.94
2019-05-03T13:31:25.092Z,40.29
2019-05-03T13:34:35.410Z,40.61
2019-05-03T13:37:45.237Z,39.68
2019-05-03T13:41:06.512Z,39.80
2019-05-03T13:44:16.224Z,41.07
2019-05-03T13:47:24.908Z,43.77
2019-05-03T13:50:35.130Z,44.24
2019-05-03T13:53:43.819Z,44.90
2019-05-03T13:56:52.443Z,45.79
2019-05-03T14:00:01.082Z,44.64
2019-05-03T14:03:09.892Z,44.58
2019-05-03T14:06:28.747Z,45.53
2019-05-03T14:09:37.442Z,45.13
2019-05-03T14:12:46.050Z,44.32
2019-05-03T14:15:54.870Z,43.37
2019-05-03T14:19:09.827Z,42.91
2019-05-03T14:22:17.554Z,43.05
2019-05-03T14:25:26.034Z,43.37
2019-05-03T14:28:34.689Z,43.61
2019-05-03T14:31:45.177Z,43.54
2019-05-03T14:34:54.778Z,43.68
2019-05-03T14:38:05.946Z,44.11
2019-05-03T14:41:25.400Z,42.77
2019-05-03T14:44:35.721Z,41.87
2019-05-03T14:47:44.494Z,41.69
2019-05-03T14:50:54.976Z,42.35
2019-05-03T14:54:05.317Z,41.65
2019-05-03T14:57:32.662Z,41.13
2019-05-03T15:01:08.740Z,41.22
2019-05-03T15:04:17.377Z,41.14
2019-05-03T15:07:26.585Z,42.50
2019-05-03T15:10:45.778Z,42.68
2019-05-03T15:14:05.651Z,42.94
2019-05-03T15:17:14.406Z,42.67
2019-05-03T15:20:25.279Z,42.76
2019-05-03T15:23:45.236Z,42.51
2019-05-03T15:26:55.400Z,41.87
2019-05-03T15:30:04.902Z,40.78
2019-05-03T15:33:15.134Z,39.26
2019-05-03T15:36:23.915Z,39.13
2019-05-03T15:39:45.024Z,39.23
2019-05-03T15:42:58.898Z,39.89
2019-05-03T15:46:26.537Z,39.99
2019-05-03T15:49:55.263Z,39.44
2019-05-03T15:53:04.404Z,39.72
2019-05-03T15:56:14.699Z,38.97
2019-05-03T15:59:24.406Z,39.46
2019-05-03T16:02:35.090Z,38.81
2019-05-03T16:05:44.710Z,38.74
2019-05-03T16:08:55.303Z,38.95
2019-05-03T16:12:05.091Z,39.40
2019-05-03T16:15:12.799Z,39.64
2019-05-03T16:18:21.406Z,40.33
2019-05-03T16:21:30.333Z,41.40
2019-05-03T16:24:38.963Z,41.19
2019-05-03T16:28:09.490Z,41.81
2019-05-03T16:31:20.730Z,41.59
2019-05-03T16:34:29.245Z,41.73
2019-05-03T16:37:37.735Z,41.82
2019-05-03T16:40:56.695Z,42.10
2019-05-03T16:44:05.350Z,42.18
2019-05-03T16:47:15.655Z,42.16
2019-05-03T16:50:25.081Z,41.75
2019-05-03T16:54:03.591Z,42.65
2019-05-03T16:57:12.110Z,43.21
2019-05-03T17:00:20.732Z,43.58
2019-05-03T17:03:40.810Z,44.30
2019-05-03T17:06:51.941Z,45.11
2019-05-03T17:10:34.726Z,44.58
2019-05-03T17:13:45.489Z,45.38
2019-05-03T17:16:53.302Z,46.16
2019-05-03T17:20:01.964Z,46.58
2019-05-03T17:23:10.739Z,47.00
2019-05-03T17:26:19.360Z,49.07
2019-05-03T17:29:38.271Z,51.21
2019-05-03T17:32:47.053Z,53.29
2019-05-03T17:35:55.713Z,54.78
2019-05-03T17:39:08.667Z,57.68
2019-05-03T17:42:25.320Z,58.52
2019-05-03T17:45:38.163Z,58.16
2019-05-03T17:48:46.711Z,58.52
2019-05-03T17:52:14.322Z,58.11
2019-05-03T17:55:40.030Z,58.37
2019-05-03T17:58:52.411Z,58.12
2019-05-03T18:02:36.606Z,58.34
2019-05-03T18:05:53.602Z,59.17
2019-05-03T18:09:39.293Z,59.40
2019-05-03T18:12:47.936Z,61.31
2019-05-03T18:15:56.506Z,61.65
2019-05-03T18:19:05.292Z,62.42
2019-05-03T18:22:15.326Z,61.55
2019-05-03T18:25:24.835Z,60.32
2019-05-03T18:28:44.724Z,59.96
2019-05-03T18:31:55.025Z,60.50
2019-05-03T18:35:04.858Z,60.75
2019-05-03T18:38:14.847Z,60.30
2019-05-03T18:41:25.414Z,59.63
2019-05-03T18:44:47.278Z,60.17
2019-05-03T18:47:55.852Z,60.03
2019-05-03T18:51:05.923Z,59.30
2019-05-03T18:54:15.620Z,59.33
2019-05-03T18:57:36.409Z,61.44
2019-05-03T19:00:45.328Z,63.95
2019-05-03T19:03:57.124Z,64.29
2019-05-03T19:07:07.377Z,67.91
2019-05-03T19:10:50.427Z,68.50
2019-05-03T19:14:04.549Z,70.16
2019-05-03T19:17:46.911Z,68.72
2019-05-03T19:20:55.459Z,69.25
2019-05-03T19:24:04.806Z,68.32
2019-05-03T19:27:13.548Z,68.24
2019-05-03T19:30:34.773Z,68.81
2019-05-03T19:33:45.558Z,69.68
2019-05-03T19:36:54.739Z,67.70
2019-05-03T19:40:03.508Z,69.37
2019-05-03T19:43:12.145Z,68.64
2019-05-03T19:46:20.745Z,68.78
2019-05-03T19:49:27.905Z,68.53
2019-05-03T19:52:56.997Z,68.52
2019-05-03T19:56:29.576Z,68.02
2019-05-03T19:59:56.972Z,68.02
2019-05-03T20:03:12.742Z,67.75
2019-05-03T20:06:44.994Z,67.19
2019-05-03T20:09:54.402Z,66.53
2019-05-03T20:13:04.609Z,66.59
2019-05-03T20:16:15.387Z,66.35
2019-05-03T20:19:25.582Z,65.80
2019-05-03T20:22:35.102Z,65.72
2019-05-03T20:25:43.972Z,65.14
2019-05-03T20:28:52.565Z,66.01
2019-05-03T20:32:30.877Z,65.82
2019-05-03T20:35:39.492Z,65.22
2019-05-03T20:38:48.069Z,65.90
2019-05-03T20:41:56.677Z,66.20
2019-05-03T20:45:08.944Z,65.84
2019-05-03T20:48:18.945Z,66.12
2019-05-03T20:51:27.509Z,66.63
2019-05-03T20:54:46.224Z,67.70
2019-05-03T20:57:55.046Z,68.20
2019-05-03T21:01:05.026Z,67.09
2019-05-03T21:04:15.332Z,68.11
2019-05-03T21:07:24.153Z,68.84
2019-05-03T21:10:32.678Z,69.24
2019-05-03T21:13:42.488Z,70.08
2019-05-03T21:17:40.958Z,69.88
2019-05-03T21:21:09.761Z,69.80
2019-05-03T21:24:26.076Z,70.65
2019-05-03T21:28:13.614Z,70.40
2019-05-03T21:31:22.139Z,71.36
2019-05-03T21:34:31.099Z,70.73
2019-05-03T21:37:39.607Z,71.49
2019-05-03T21:40:48.808Z,71.62
2019-05-03T21:43:57.368Z,71.22
2019-05-03T21:47:31.389Z,70.89
2019-05-03T21:50:41.155Z,71.25
2019-05-03T21:53:49.645Z,71.32
2019-05-03T21:57:00.136Z,70.92
2019-05-03T22:00:09.681Z,71.42
2019-05-03T22:03:18.179Z,71.68
2019-05-03T22:06:37.074Z,71.76
2019-05-03T22:09:45.672Z,71.89
2019-05-03T22:12:54.474Z,71.76
2019-05-03T22:16:15.382Z,72.08
2019-05-03T22:19:25.070Z,72.24
2019-05-03T22:22:55.967Z,72.14
2019-05-03T22:26:05.153Z,72.23
2019-05-03T22:29:14.392Z,72.58
2019-05-03T22:32:24.474Z,72.16
2019-05-03T22:35:36.080Z,72.11
2019-05-03T22:38:45.340Z,72.58
2019-05-03T22:41:53.986Z,72.14
2019-05-03T22:45:04.555Z,72.67
2019-05-03T22:48:14.565Z,73.10
2019-05-03T22:51:24.465Z,72.84
2019-05-03T22:54:34.596Z,72.20
2019-05-03T22:57:43.216Z,72.71
2019-05-03T23:01:02.107Z,72.81
2019-05-03T23:04:10.608Z,72.89
2019-05-03T23:07:19.417Z,72.76
2019-05-03T23:10:28.156Z,72.99
2019-05-03T23:13:36.669Z,73.02
2019-05-03T23:16:45.345Z,73.18
2019-05-03T23:19:58.336Z,73.25
2019-05-03T23:23:07.304Z,73.25
2019-05-03T23:26:34.823Z,73.31
2019-05-03T23:29:45.289Z,73.73
2019-05-03T23:32:54.748Z,73.52
2019-05-03T23:36:04.603Z,73.64
2019-05-03T23:39:14.492Z,73.36
2019-05-03T23:42:35.075Z,73.07
2019-05-03T23:45:45.286Z,73.28
2019-05-03T23:48:53.974Z,72.63
2019-05-03T23:52:08.094Z,72.78
2019-05-03T23:55:28.679Z,72.99
2019-05-03T23:58:38.514Z,72.34
